Time;durP1;ratioP1;P1;durP2;ratioP2;P2;SDS_P1;SDS_P2;PMS_P1;PMS_P2;Temp;Humidity;BMP_temperature;BMP_pressure;BME280_temperature;BME280_humidity;BME280_pressure;Samples;Min_cycle;Max_cycle;Signal;HPM_P1;HPM_P2
2021/09/11 00:02:18;;;;;;;22.13;16.80;;;;;;;17.58;100.00;101370.25;10504661;28;20055;-55
2021/09/11 00:07:21;;;;;;;19.85;15.15;;;;;;;17.61;100.00;101372.69;10503622;28;20587;-53
2021/09/11 00:12:23;;;;;;;26.13;18.15;;;;;;;17.72;100.00;101371.81;10504155;28;20044;-53
2021/09/11 00:17:26;;;;;;;23.50;18.17;;;;;;;17.47;100.00;101379.06;10503447;28;20480;-55
2021/09/11 00:22:28;;;;;;;21.33;16.20;;;;;;;17.68;100.00;101389.75;10503799;28;20049;-56
2021/09/11 00:27:30;;;;;;;21.30;13.52;;;;;;;17.64;100.00;101370.63;10503011;28;20062;-54
2021/09/11 00:32:34;;;;;;;14.68;12.70;;;;;;;17.57;100.00;101368.59;10503012;28;20397;-56
2021/09/11 00:37:37;;;;;;;19.92;15.25;;;;;;;17.57;100.00;101371.25;10502641;28;20048;-55
2021/09/11 00:42:43;;;;;;;22.55;14.60;;;;;;;17.24;100.00;101375.53;10502751;28;20040;-55
2021/09/11 00:47:46;;;;;;;20.27;15.98;;;;;;;17.38;100.00;101379.75;10502554;28;20044;-57
2021/09/11 00:52:49;;;;;;;20.63;11.98;;;;;;;17.56;100.00;101375.66;10502170;28;20407;-55
2021/09/11 00:57:52;;;;;;;15.93;11.70;;;;;;;17.60;100.00;101374.50;10502484;28;20127;-57
2021/09/11 01:02:55;;;;;;;20.95;14.90;;;;;;;17.23;100.00;101379.13;10500559;28;20487;-58
2021/09/11 01:07:58;;;;;;;21.08;12.32;;;;;;;17.23;100.00;101379.97;10501154;28;20396;-55
2021/09/11 01:13:02;;;;;;;21.92;15.32;;;;;;;17.19;100.00;101367.91;10501827;28;20051;-56
2021/09/11 01:18:05;;;;;;;26.27;14.75;;;;;;;16.99;100.00;101379.19;10500653;28;20523;-57
2021/09/11 01:23:08;;;;;;;25.35;16.13;;;;;;;17.05;100.00;101381.38;10500657;28;20408;-57
2021/09/11 01:28:10;;;;;;;19.17;12.55;;;;;;;17.12;100.00;101381.75;10500310;28;20400;-54
2021/09/11 01:33:12;;;;;;;29.30;17.58;;;;;;;16.99;100.00;101392.41;10500477;28;20485;-56
2021/09/11 01:38:15;;;;;;;24.88;17.55;;;;;;;16.92;100.00;101404.41;10500114;28;20051;-55
2021/09/11 01:43:27;;;;;;;31.02;18.33;;;;;;;16.99;100.00;101403.81;10500014;28;20052;-57
2021/09/11 01:48:29;;;;;;;28.27;17.95;;;;;;;17.20;100.00;101406.66;10499611;28;20053;-58
2021/09/11 01:53:31;;;;;;;20.60;15.63;;;;;;;16.94;100.00;101405.97;10499818;28;20049;-54
2021/09/11 01:58:34;;;;;;;26.10;17.58;;;;;;;17.14;100.00;101401.81;10499191;28;20048;-55
2021/09/11 02:03:36;;;;;;;32.13;18.70;;;;;;;17.03;100.00;101415.88;10499677;28;20047;-54
2021/09/11 02:08:39;;;;;;;17.38;13.13;;;;;;;17.13;100.00;101404.59;10498836;28;20082;-55
2021/09/11 02:13:41;;;;;;;20.83;16.63;;;;;;;16.96;100.00;101419.91;10499081;28;20051;-58
2021/09/11 02:18:44;;;;;;;24.90;17.17;;;;;;;16.82;100.00;101418.28;10498448;28;20055;-55
2021/09/11 02:23:46;;;;;;;31.27;20.73;;;;;;;16.84;100.00;101415.50;10498564;28;20489;-54
2021/09/11 02:28:49;;;;;;;22.90;16.10;;;;;;;16.71;100.00;101419.06;10498297;28;20480;-53
2021/09/11 02:33:51;;;;;;;23.85;15.65;;;;;;;16.83;100.00;101416.50;10498394;28;20041;-53
2021/09/11 02:38:53;;;;;;;25.98;16.23;;;;;;;16.54;100.00;101406.22;10498142;28;20489;-54
2021/09/11 02:43:56;;;;;;;20.73;16.13;;;;;;;16.49;100.00;101419.81;10498264;28;20045;-57
2021/09/11 02:48:59;;;;;;;20.35;14.82;;;;;;;16.63;100.00;101421.44;10498077;28;20052;-56
2021/09/11 02:54:02;;;;;;;24.15;15.80;;;;;;;16.48;100.00;101412.00;10498253;28;20078;-54
2021/09/11 02:59:04;;;;;;;22.00;15.52;;;;;;;16.71;100.00;101411.16;10497997;28;20054;-54
2021/09/11 03:04:06;;;;;;;36.17;21.75;;;;;;;16.16;100.00;101410.69;10498013;28;20048;-58
2021/09/11 03:09:08;;;;;;;28.30;17.50;;;;;;;16.37;100.00;101414.56;10497190;28;20048;-52
2021/09/11 03:14:11;;;;;;;29.70;19.92;;;;;;;16.35;100.00;101417.31;10497886;28;20041;-57
2021/09/11 03:19:13;;;;;;;27.55;16.13;;;;;;;16.61;100.00;101420.72;10498110;28;20060;-56
2021/09/11 03:24:16;;;;;;;31.08;19.73;;;;;;;16.09;100.00;101419.19;10497509;28;20051;-53
2021/09/11 03:29:18;;;;;;;35.55;23.33;;;;;;;15.98;100.00;101423.41;10497154;28;20048;-57
2021/09/11 03:34:20;;;;;;;33.97;21.55;;;;;;;15.81;100.00;101420.28;10497916;28;20048;-53
2021/09/11 03:39:23;;;;;;;33.92;21.67;;;;;;;15.97;100.00;101415.59;10497023;28;20045;-58
2021/09/11 03:44:25;;;;;;;39.17;22.40;;;;;;;16.06;100.00;101417.59;10499625;28;20052;-56
2021/09/11 03:49:27;;;;;;;38.28;24.23;;;;;;;15.81;100.00;101417.63;10504412;28;20052;-50
2021/09/11 03:54:30;;;;;;;44.47;23.13;;;;;;;15.94;100.00;101421.09;10504518;28;20041;-55
2021/09/11 03:59:32;;;;;;;40.85;25.25;;;;;;;15.81;100.00;101425.56;10504077;28;20052;-55
2021/09/11 04:04:34;;;;;;;30.27;21.15;;;;;;;15.92;100.00;101417.69;10504121;28;20044;-53
2021/09/11 04:09:37;;;;;;;33.28;22.77;;;;;;;15.96;100.00;101421.84;10503857;28;20041;-57
2021/09/11 04:14:39;;;;;;;51.20;27.50;;;;;;;15.65;100.00;101429.22;10503785;28;20052;-54
2021/09/11 04:19:41;;;;;;;34.25;25.55;;;;;;;15.67;100.00;101426.44;10503056;28;20052;-56
2021/09/11 04:24:44;;;;;;;31.83;21.73;;;;;;;16.02;100.00;101424.06;10503198;28;20509;-57
2021/09/11 04:29:46;;;;;;;32.35;21.95;;;;;;;16.00;100.00;101435.66;10502944;28;20055;-54
2021/09/11 04:34:48;;;;;;;27.15;21.63;;;;;;;16.07;100.00;101429.00;10503225;28;20059;-55
2021/09/11 04:39:51;;;;;;;35.75;24.95;;;;;;;15.77;100.00;101433.69;10501363;28;20407;-57
2021/09/11 04:44:53;;;;;;;42.95;25.95;;;;;;;15.82;100.00;101430.72;10502587;28;20509;-58
2021/09/11 04:49:55;;;;;;;22.02;17.67;;;;;;;15.98;100.00;101439.25;10502148;28;20098;-57
2021/09/11 04:54:58;;;;;;;28.00;20.80;;;;;;;15.99;100.00;101440.09;10501452;28;20044;-55
2021/09/11 05:00:00;;;;;;;26.02;19.65;;;;;;;16.10;100.00;101445.47;10501767;28;20528;-54
2021/09/11 05:05:03;;;;;;;22.45;16.73;;;;;;;16.35;100.00;101441.09;10501709;28;20049;-52
2021/09/11 05:10:06;;;;;;;25.80;18.92;;;;;;;16.14;100.00;101446.94;10501539;28;20052;-56
2021/09/11 05:15:09;;;;;;;32.28;19.98;;;;;;;16.14;100.00;101449.59;10502136;28;20052;-54
2021/09/11 05:20:12;;;;;;;42.63;21.98;;;;;;;15.98;100.00;101441.88;10500839;28;20056;-53
2021/09/11 05:25:15;;;;;;;30.77;19.48;;;;;;;16.18;100.00;101444.94;10501115;28;20049;-54
2021/09/11 05:30:18;;;;;;;17.67;15.40;;;;;;;16.31;100.00;101453.69;10499458;28;20044;-57
2021/09/11 05:35:21;;;;;;;26.25;16.58;;;;;;;16.23;100.00;101448.09;10501180;28;20041;-55
2021/09/11 05:40:23;;;;;;;24.90;15.30;;;;;;;15.96;100.00;101459.63;10500304;28;20056;-53
2021/09/11 05:45:25;;;;;;;25.67;17.00;;;;;;;16.07;100.00;101465.97;10499046;28;20049;-56
2021/09/11 05:50:28;;;;;;;26.52;15.90;;;;;;;16.17;100.00;101469.66;10499939;28;20045;-58
2021/09/11 05:55:30;;;;;;;23.08;16.90;;;;;;;16.17;100.00;101472.28;10499830;28;20056;-56
2021/09/11 06:00:32;;;;;;;24.50;17.00;;;;;;;15.99;100.00;101474.44;10499527;28;20064;-54
2021/09/11 06:05:35;;;;;;;14.57;12.48;;;;;;;16.23;100.00;101465.75;10499245;28;20044;-54
2021/09/11 06:10:37;;;;;;;24.27;16.95;;;;;;;16.20;100.00;101464.16;10498705;28;20393;-54
2021/09/11 06:15:40;;;;;;;18.00;13.65;;;;;;;16.37;100.00;101480.63;10499174;28;20048;-54
2021/09/11 06:20:42;;;;;;;21.88;14.05;;;;;;;16.32;100.00;101480.94;10498849;28;20059;-54
2021/09/11 06:25:44;;;;;;;20.15;13.93;;;;;;;16.19;100.00;101488.91;10498610;28;20060;-57
2021/09/11 06:30:47;;;;;;;15.80;13.35;;;;;;;16.26;100.00;101486.69;10498286;28;20048;-57
2021/09/11 06:35:49;;;;;;;19.08;11.57;;;;;;;16.30;100.00;101490.78;10499180;28;20045;-54
2021/09/11 06:40:51;;;;;;;22.42;11.73;;;;;;;16.40;100.00;101483.88;10498258;28;20485;-54
2021/09/11 06:45:54;;;;;;;22.60;14.93;;;;;;;16.20;100.00;101474.72;10498051;28;20044;-55
2021/09/11 06:50:56;;;;;;;16.80;11.60;;;;;;;17.15;100.00;101482.91;10497978;28;20053;-55
2021/09/11 06:55:58;;;;;;;17.77;11.43;;;;;;;17.00;100.00;101491.97;10497776;28;20060;-53
2021/09/11 07:01:01;;;;;;;10.88;8.25;;;;;;;17.09;100.00;101507.16;10497570;28;20488;-52
2021/09/11 07:06:07;;;;;;;21.83;12.20;;;;;;;16.82;100.00;101508.19;10497839;28;20052;-53
2021/09/11 07:11:13;;;;;;;18.02;11.88;;;;;;;16.97;100.00;101521.28;10496113;28;20056;-55
2021/09/11 07:16:15;;;;;;;14.75;11.13;;;;;;;16.77;100.00;101523.53;10497446;28;20396;-57
2021/09/11 07:21:18;;;;;;;16.33;12.38;;;;;;;16.92;100.00;101529.56;10503244;28;20063;-54
2021/09/11 07:26:20;;;;;;;15.32;12.05;;;;;;;16.92;100.00;101534.00;10505502;28;20511;-53
2021/09/11 07:31:22;;;;;;;19.33;12.35;;;;;;;16.88;100.00;101530.75;10505181;28;20130;-53
2021/09/11 07:36:25;;;;;;;17.67;13.82;;;;;;;17.12;100.00;101538.69;10505445;28;20044;-53
2021/09/11 07:41:27;;;;;;;16.58;12.68;;;;;;;17.37;100.00;101537.72;10505127;28;20067;-58
2021/09/11 07:46:30;;;;;;;20.98;12.40;;;;;;;17.45;100.00;101538.00;10504551;28;20052;-55
2021/09/11 07:51:32;;;;;;;11.80;9.73;;;;;;;17.20;100.00;101538.13;10504720;28;20044;-53
2021/09/11 07:56:34;;;;;;;12.75;10.20;;;;;;;17.34;100.00;101539.75;10504391;28;20564;-51
2021/09/11 08:01:37;;;;;;;14.27;11.82;;;;;;;17.77;100.00;101540.00;10503996;28;20052;-55
2021/09/11 08:06:39;;;;;;;21.73;12.50;;;;;;;17.75;100.00;101544.59;10503996;28;20049;-53
2021/09/11 08:11:42;;;;;;;23.73;16.02;;;;;;;18.13;100.00;101537.34;10504217;28;20044;-54
2021/09/11 08:16:44;;;;;;;14.90;12.68;;;;;;;18.16;100.00;101532.63;10503657;28;20072;-52
2021/09/11 08:21:46;;;;;;;22.98;16.92;;;;;;;19.17;100.00;101546.75;10503733;28;20060;-54
2021/09/11 08:26:49;;;;;;;19.40;14.82;;;;;;;18.93;100.00;101544.28;10503439;28;20049;-56
2021/09/11 08:31:51;;;;;;;22.83;13.75;;;;;;;19.01;100.00;101546.31;10501825;28;20075;-53
2021/09/11 08:36:53;;;;;;;17.77;14.93;;;;;;;19.10;100.00;101554.38;10503336;28;20048;-56
2021/09/11 08:42:00;;;;;;;17.98;14.32;;;;;;;19.94;100.00;101555.44;10502619;28;20061;-54
2021/09/11 08:47:07;;;;;;;13.85;11.98;;;;;;;19.74;100.00;101560.63;10503108;28;20048;-56
2021/09/11 08:52:10;;;;;;;19.30;16.45;;;;;;;19.21;100.00;101568.56;10502224;28;20515;-59
2021/09/11 08:57:23;;;;;;;15.75;12.70;;;;;;;19.40;99.45;101568.75;10501968;28;20506;-53
2021/09/11 09:02:25;;;;;;;16.63;13.07;;;;;;;19.59;99.59;101581.34;10502551;28;20048;-57
2021/09/11 09:07:39;;;;;;;19.23;15.88;;;;;;;19.45;100.00;101581.63;10501462;28;20049;-56
2021/09/11 09:12:44;;;;;;;22.17;15.68;;;;;;;19.61;100.00;101581.22;10501297;28;20404;-56
2021/09/11 09:17:50;;;;;;;20.67;16.08;;;;;;;19.74;100.00;101578.38;10501064;28;20057;-57
2021/09/11 09:22:58;;;;;;;20.42;16.30;;;;;;;19.46;100.00;101578.84;10500897;28;20056;-54
2021/09/11 09:28:03;;;;;;;17.05;14.30;;;;;;;19.69;100.00;101586.72;10500422;28;20063;-56
2021/09/11 09:33:06;;;;;;;22.63;15.55;;;;;;;20.64;100.00;101580.44;10501005;28;20052;-56
2021/09/11 09:38:09;;;;;;;18.30;14.52;;;;;;;20.46;94.79;101582.88;10500170;28;20480;-52
2021/09/11 09:43:14;;;;;;;17.60;14.57;;;;;;;19.72;99.18;101593.59;10500405;28;20045;-55
2021/09/11 09:48:17;;;;;;;24.65;14.88;;;;;;;20.07;99.59;101590.63;10498637;28;20067;-57
2021/09/11 09:53:19;;;;;;;18.80;14.18;;;;;;;19.99;96.42;101593.13;10499780;28;20048;-56
2021/09/11 09:58:21;;;;;;;16.20;14.20;;;;;;;19.92;99.64;101594.59;10499264;28;20040;-59
2021/09/11 10:03:24;;;;;;;23.48;16.90;;;;;;;19.57;100.00;101598.34;10499407;28;20040;-56
2021/09/11 10:08:28;;;;;;;20.27;15.23;;;;;;;19.23;100.00;101595.81;10497722;28;22467;-58
2021/09/11 10:13:36;;;;;;;18.88;15.57;;;;;;;19.41;100.00;101588.19;10497975;28;20111;-56
2021/09/11 10:18:40;;;;;;;19.48;16.10;;;;;;;19.21;100.00;101595.94;10499276;28;20060;-55
2021/09/11 10:23:56;;;;;;;22.48;13.93;;;;;;;19.45;100.00;101595.78;10498809;28;20051;-54
2021/09/11 10:28:59;;;;;;;19.52;15.70;;;;;;;19.46;100.00;101593.94;10499184;28;20051;-56
2021/09/11 10:34:02;;;;;;;16.17;13.25;;;;;;;20.15;98.60;101580.19;10498692;28;20048;-54
2021/09/11 10:39:08;;;;;;;17.48;14.32;;;;;;;20.10;100.00;101574.44;10498405;28;20058;-57
2021/09/11 10:44:12;;;;;;;15.40;13.18;;;;;;;20.72;96.33;101569.13;10498480;28;20055;-57
2021/09/11 10:49:27;;;;;;;17.08;13.32;;;;;;;20.45;94.35;101575.88;10497922;28;20079;-55
2021/09/11 10:54:31;;;;;;;17.38;14.73;;;;;;;20.14;95.31;101564.38;10497204;28;20477;-57
2021/09/11 10:59:38;;;;;;;18.85;13.68;;;;;;;20.27;96.93;101566.81;10497723;28;20048;-55
2021/09/11 11:04:50;;;;;;;16.85;13.55;;;;;;;20.24;99.11;101562.63;10498180;28;20048;-58
2021/09/11 11:09:55;;;;;;;19.92;13.75;;;;;;;20.32;100.00;101562.78;10497730;28;20049;-57
2021/09/11 11:15:00;;;;;;;19.05;14.93;;;;;;;20.44;97.51;101571.50;10497029;28;20063;-58
2021/09/11 11:20:05;;;;;;;19.20;16.52;;;;;;;20.03;99.11;101576.75;10497348;28;20065;-55
2021/09/11 11:25:10;;;;;;;17.77;14.00;;;;;;;20.46;94.59;101571.38;10497533;28;20052;-55
2021/09/11 11:30:13;;;;;;;21.05;15.10;;;;;;;20.75;97.64;101580.34;10497049;28;20507;-55
2021/09/11 11:35:15;;;;;;;19.38;15.30;;;;;;;20.80;98.00;101579.94;10497264;28;20044;-57
2021/09/11 11:40:18;;;;;;;18.75;15.40;;;;;;;20.62;93.70;101574.38;10497733;28;20056;-56
2021/09/11 11:45:25;;;;;;;22.58;16.85;;;;;;;19.99;97.48;101571.88;10497262;28;20050;-57
2021/09/11 11:50:32;;;;;;;25.92;16.27;;;;;;;20.00;99.83;101569.06;10497381;28;20048;-54
2021/09/11 11:55:41;;;;;;;18.60;14.75;;;;;;;20.21;97.81;101566.38;10496824;28;20483;-55
2021/09/11 12:00:44;;;;;;;22.10;16.02;;;;;;;20.16;100.00;101565.94;10497067;28;20056;-57
2021/09/11 12:05:47;;;;;;;18.58;16.63;;;;;;;20.69;99.25;101564.06;10499843;28;20098;-57
2021/09/11 12:10:53;;;;;;;15.88;14.18;;;;;;;21.32;91.57;101555.78;10503746;28;20048;-54
2021/09/11 12:15:56;;;;;;;17.35;14.57;;;;;;;20.60;93.96;101553.22;10503783;28;20511;-56
2021/09/11 12:20:58;;;;;;;16.80;15.10;;;;;;;21.13;92.67;101549.47;10503531;28;20377;-55
2021/09/11 12:26:11;;;;;;;19.58;16.15;;;;;;;20.42;95.21;101560.16;10502322;28;20396;-57
2021/09/11 12:31:20;;;;;;;19.42;16.60;;;;;;;20.14;99.60;101564.38;10503202;28;20405;-57
2021/09/11 12:36:23;;;;;;;18.85;17.05;;;;;;;19.89;100.00;101565.63;10502906;28;20117;-57
2021/09/11 12:41:26;;;;;;;19.27;17.33;;;;;;;20.08;100.00;101564.91;10502581;28;20049;-54
2021/09/11 12:46:29;;;;;;;22.70;17.05;;;;;;;20.51;100.00;101555.84;10501949;28;20044;-57
2021/09/11 12:51:32;;;;;;;20.25;16.75;;;;;;;21.46;97.73;101558.00;10502182;28;20131;-53
2021/09/11 12:56:35;;;;;;;20.17;15.13;;;;;;;21.33;95.63;101552.13;10502283;28;20055;-58
2021/09/11 13:01:38;;;;;;;18.88;17.15;;;;;;;21.17;99.13;101550.03;10502106;28;20055;-56
2021/09/11 13:06:42;;;;;;;19.67;17.60;;;;;;;21.21;96.42;101553.25;10501755;28;20439;-54
2021/09/11 13:11:45;;;;;;;17.48;15.63;;;;;;;21.64;95.04;101547.50;10501931;28;20051;-52
2021/09/11 13:16:48;;;;;;;17.60;15.40;;;;;;;21.15;92.94;101544.84;10499563;28;20056;-55
2021/09/11 13:21:50;;;;;;;16.48;14.73;;;;;;;21.30;95.87;101545.25;10501713;28;20056;-55
2021/09/11 13:26:53;;;;;;;13.05;11.75;;;;;;;21.34;98.18;101546.66;10500986;28;20045;-57
2021/09/11 13:31:55;;;;;;;15.77;11.65;;;;;;;21.04;98.85;101544.13;10500625;28;20055;-56
2021/09/11 13:36:58;;;;;;;10.80;9.73;;;;;;;21.50;99.25;101535.47;10500578;28;20048;-56
2021/09/11 13:42:00;;;;;;;7.18;6.55;;;;;;;21.95;90.16;101538.47;10500343;28;20123;-55
2021/09/11 13:47:02;;;;;;;7.80;6.30;;;;;;;22.43;89.12;101545.50;10499988;28;20053;-55
2021/09/11 13:52:05;;;;;;;7.65;6.28;;;;;;;22.05;86.41;101537.44;10499715;28;20055;-59
2021/09/11 13:57:07;;;;;;;7.00;6.40;;;;;;;24.72;82.78;101542.97;10499458;28;20047;-59
2021/09/11 14:02:09;;;;;;;8.57;7.60;;;;;;;22.68;84.68;101543.97;10499641;28;20045;-54
2021/09/11 14:07:12;;;;;;;8.90;7.90;;;;;;;22.32;85.95;101545.69;10499228;28;20048;-56
2021/09/11 14:12:14;;;;;;;10.40;9.50;;;;;;;22.06;88.51;101548.97;10499742;28;20049;-55
2021/09/11 14:17:17;;;;;;;10.20;9.20;;;;;;;21.69;94.18;101550.59;10498646;28;20416;-57
2021/09/11 14:22:19;;;;;;;11.32;10.27;;;;;;;21.60;93.53;101545.28;10498674;28;20557;-55
2021/09/11 14:27:22;;;;;;;13.20;11.88;;;;;;;21.01;94.40;101547.88;10498556;28;20052;-56
2021/09/11 14:32:24;;;;;;;19.48;14.13;;;;;;;20.62;100.00;101558.41;10498555;28;20413;-56
2021/09/11 14:37:26;;;;;;;13.88;12.57;;;;;;;20.35;100.00;101567.00;10498364;28;20406;-56
2021/09/11 14:42:30;;;;;;;15.90;14.15;;;;;;;20.41;100.00;101567.31;10498454;28;20055;-55
2021/09/11 14:47:52;;;;;;;18.48;16.38;;;;;;;20.00;100.00;101563.75;10499043;28;20052;-56
2021/09/11 14:52:58;;;;;;;17.63;14.93;;;;;;;20.28;100.00;101565.84;10498060;28;20488;-56
2021/09/11 14:58:01;;;;;;;17.02;15.07;;;;;;;20.15;100.00;101571.38;10498102;28;20225;-57
2021/09/11 15:03:04;;;;;;;22.92;18.80;;;;;;;19.97;100.00;101573.78;10498226;28;20094;-57
2021/09/11 15:08:07;;;;;;;16.95;14.45;;;;;;;20.34;100.00;101565.31;10497908;28;20055;-56
2021/09/11 15:13:10;;;;;;;20.98;17.58;;;;;;;20.16;100.00;101565.94;10497393;28;20481;-56
2021/09/11 15:18:12;;;;;;;18.08;16.13;;;;;;;20.02;100.00;101568.91;10497541;28;20060;-56
2021/09/11 15:23:14;;;;;;;18.40;14.27;;;;;;;19.50;100.00;101574.13;10497413;28;20489;-58
2021/09/11 15:28:17;;;;;;;17.95;14.25;;;;;;;19.94;100.00;101560.75;10497397;28;20098;-53
2021/09/11 15:33:19;;;;;;;18.08;16.15;;;;;;;19.80;100.00;101575.22;10497916;28;20045;-54
2021/09/11 15:38:22;;;;;;;17.38;15.60;;;;;;;19.67;100.00;101576.22;10497003;28;20045;-53
2021/09/11 15:43:25;;;;;;;18.48;16.50;;;;;;;19.78;100.00;101579.84;10504314;28;20401;-56
2021/09/11 15:48:27;;;;;;;17.60;15.30;;;;;;;19.77;100.00;101572.81;10503725;28;20040;-56
2021/09/11 15:53:29;;;;;;;13.63;12.13;;;;;;;19.63;100.00;101568.63;10503518;28;20068;-55
2021/09/11 15:58:32;;;;;;;13.00;11.70;;;;;;;19.55;100.00;101577.25;10504430;28;20051;-53
2021/09/11 16:03:34;;;;;;;11.52;10.43;;;;;;;19.95;100.00;101565.09;10504404;28;20106;-56
2021/09/11 16:08:37;;;;;;;10.15;8.95;;;;;;;20.08;100.00;101565.75;10503902;28;20401;-54
2021/09/11 16:13:40;;;;;;;10.75;9.75;;;;;;;19.71;100.00;101565.34;10504162;28;20060;-55
2021/09/11 16:18:43;;;;;;;11.02;9.90;;;;;;;19.20;100.00;101567.75;10504228;28;20054;-56
2021/09/11 16:23:45;;;;;;;9.68;8.88;;;;;;;19.48;100.00;101576.06;10502305;28;20063;-52
2021/09/11 16:28:48;;;;;;;10.63;9.65;;;;;;;19.54;100.00;101574.72;10503388;28;20052;-57
2021/09/11 16:33:50;;;;;;;10.98;9.88;;;;;;;19.39;100.00;101575.03;10502939;28;20060;-54
2021/09/11 16:38:53;;;;;;;11.05;9.27;;;;;;;19.52;100.00;101572.22;10502766;28;20048;-55
2021/09/11 16:43:55;;;;;;;10.15;9.00;;;;;;;19.50;100.00;101568.81;10503788;28;20049;-56
2021/09/11 16:48:58;;;;;;;9.77;8.88;;;;;;;19.39;100.00;101564.41;10502626;28;20044;-57
2021/09/11 16:54:00;;;;;;;12.45;11.15;;;;;;;19.31;100.00;101572.16;10501211;28;20403;-56
2021/09/11 16:59:03;;;;;;;10.27;9.27;;;;;;;19.18;100.00;101568.81;10502170;28;20045;-55
2021/09/11 17:04:06;;;;;;;12.98;10.32;;;;;;;19.04;100.00;101576.09;10502084;28;20052;-58
2021/09/11 17:09:08;;;;;;;11.38;9.05;;;;;;;19.05;100.00;101569.81;10502149;28;20056;-54
2021/09/11 17:14:11;;;;;;;15.18;12.90;;;;;;;18.86;100.00;101570.47;10501513;28;20071;-57
2021/09/11 17:19:14;;;;;;;16.70;14.88;;;;;;;18.90;100.00;101573.72;10501486;28;20053;-56
2021/09/11 17:24:18;;;;;;;14.50;13.00;;;;;;;18.81;100.00;101574.41;10501041;28;20503;-57
2021/09/11 17:29:20;;;;;;;15.25;12.10;;;;;;;18.71;100.00;101576.97;10500667;28;20240;-57
2021/09/11 17:34:22;;;;;;;15.45;13.80;;;;;;;18.90;100.00;101579.03;10500986;28;20051;-57
2021/09/11 17:39:25;;;;;;;20.02;17.85;;;;;;;18.67;100.00;101580.84;10500416;28;20052;-56
2021/09/11 17:44:27;;;;;;;19.55;16.58;;;;;;;18.78;100.00;101585.28;10500872;28;20040;-57
2021/09/11 17:49:29;;;;;;;25.20;18.38;;;;;;;18.72;100.00;101586.59;10500147;28;20045;-57
2021/09/11 17:54:32;;;;;;;16.63;14.75;;;;;;;18.74;100.00;101577.59;10500514;28;20071;-57
2021/09/11 17:59:34;;;;;;;21.17;16.02;;;;;;;18.67;100.00;101588.78;10499607;28;20040;-56
2021/09/11 18:04:37;;;;;;;17.27;14.68;;;;;;;18.50;100.00;101590.13;10498209;28;20067;-56
2021/09/11 18:09:39;;;;;;;21.77;18.30;;;;;;;18.42;100.00;101590.72;10499039;28;20048;-56
2021/09/11 18:14:42;;;;;;;22.83;19.52;;;;;;;18.40;100.00;101594.47;10499577;28;20048;-56
2021/09/11 18:19:45;;;;;;;23.15;17.80;;;;;;;18.31;100.00;101594.22;10499429;28;20060;-54
2021/09/11 18:24:47;;;;;;;17.38;15.43;;;;;;;18.28;100.00;101590.97;10497878;28;20049;-54
2021/09/11 18:29:52;;;;;;;14.10;12.65;;;;;;;18.45;100.00;101600.25;10498403;28;20094;-54
2021/09/11 18:34:54;;;;;;;21.10;18.63;;;;;;;18.17;100.00;101607.66;10498844;28;20040;-51
2021/09/11 18:39:57;;;;;;;22.40;17.95;;;;;;;18.52;100.00;101615.53;10497246;28;20045;-56
2021/09/11 18:44:59;;;;;;;24.67;20.63;;;;;;;18.10;100.00;101625.84;10499048;28;20041;-52
2021/09/11 18:50:02;;;;;;;22.08;16.50;;;;;;;18.00;100.00;101638.97;10497779;28;20044;-56
2021/09/11 18:55:05;;;;;;;18.83;16.80;;;;;;;18.39;100.00;101657.22;10498658;28;20052;-54
2021/09/11 19:00:09;;;;;;;23.55;20.45;;;;;;;18.12;100.00;101653.09;10497718;28;20489;-52
2021/09/11 19:05:11;;;;;;;28.65;20.98;;;;;;;18.16;100.00;101657.19;10497931;28;20409;-60
2021/09/11 19:10:13;;;;;;;26.25;22.27;;;;;;;18.02;100.00;101662.66;10497562;28;20048;-53
2021/09/11 19:15:17;;;;;;;34.03;25.52;;;;;;;18.11;100.00;101667.28;10500229;28;20428;-56
2021/09/11 19:20:19;;;;;;;29.05;24.25;;;;;;;18.18;100.00;101665.03;10505927;28;20489;-52
2021/09/11 19:25:22;;;;;;;30.80;26.70;;;;;;;18.15;100.00;101671.38;10505729;28;20594;-54
2021/09/11 19:30:24;;;;;;;33.22;26.13;;;;;;;17.99;100.00;101666.41;10505318;28;20040;-54
2021/09/11 19:35:26;;;;;;;29.73;24.95;;;;;;;18.12;100.00;101661.03;10505883;28;20041;-57
2021/09/11 19:40:29;;;;;;;35.58;27.73;;;;;;;17.97;100.00;101668.34;10505124;28;20056;-54
2021/09/11 19:45:31;;;;;;;34.70;26.13;;;;;;;17.99;100.00;101668.22;10504973;28;20048;-55
2021/09/11 19:50:36;;;;;;;34.97;27.13;;;;;;;18.02;100.00;101667.97;10504325;28;20480;-54
2021/09/11 19:55:39;;;;;;;46.03;27.10;;;;;;;17.99;100.00;101676.19;10505140;28;20048;-57
2021/09/11 20:00:42;;;;;;;29.63;24.20;;;;;;;17.98;100.00;101683.25;10504564;28;20082;-54
2021/09/11 20:05:44;;;;;;;30.25;24.67;;;;;;;17.99;100.00;101677.00;10503117;28;20503;-57
2021/09/11 20:10:46;;;;;;;24.42;21.45;;;;;;;18.11;100.00;101682.34;10504301;28;20055;-54
2021/09/11 20:15:50;;;;;;;36.60;25.75;;;;;;;18.02;100.00;101683.88;10503985;28;20052;-55
2021/09/11 20:20:52;;;;;;;36.08;24.70;;;;;;;18.03;100.00;101679.44;10503451;28;20508;-54
2021/09/11 20:25:54;;;;;;;43.15;29.85;;;;;;;17.85;100.00;101677.16;10503455;28;20049;-55
2021/09/11 20:30:57;;;;;;;30.42;24.27;;;;;;;18.04;100.00;101674.03;10503733;28;20041;-57
2021/09/11 20:36:00;;;;;;;42.55;29.13;;;;;;;17.81;100.00;101676.53;10503583;28;20048;-57
2021/09/11 20:41:04;;;;;;;34.75;25.52;;;;;;;17.98;100.00;101685.91;10502769;28;20134;-56
2021/09/11 20:46:06;;;;;;;30.95;23.70;;;;;;;17.94;100.00;101679.16;10503356;28;20053;-57
2021/09/11 20:51:09;;;;;;;33.88;22.42;;;;;;;17.89;100.00;101683.97;10502308;28;20071;-55
2021/09/11 20:56:12;;;;;;;36.63;24.85;;;;;;;17.90;100.00;101692.75;10502831;28;20055;-57
2021/09/11 21:01:14;;;;;;;43.22;27.58;;;;;;;18.10;100.00;101691.25;10501828;28;20045;-57
2021/09/11 21:06:17;;;;;;;33.47;24.58;;;;;;;17.85;100.00;101687.75;10502222;28;20048;-56
2021/09/11 21:11:19;;;;;;;36.22;23.80;;;;;;;18.00;100.00;101691.97;10501948;28;20052;-58
2021/09/11 21:16:22;;;;;;;37.90;27.13;;;;;;;17.77;100.00;101687.47;10501505;28;20060;-55
2021/09/11 21:21:24;;;;;;;38.78;25.45;;;;;;;17.85;100.00;101694.84;10501638;28;20048;-57
2021/09/11 21:26:27;;;;;;;35.67;26.73;;;;;;;17.74;100.00;101696.50;10501018;28;20124;-56
2021/09/11 21:31:29;;;;;;;41.35;26.40;;;;;;;17.86;100.00;101702.69;10500925;28;20045;-52
2021/09/11 21:36:32;;;;;;;39.67;25.58;;;;;;;17.75;100.00;101692.03;10500828;28;20102;-54
2021/09/11 21:41:34;;;;;;;36.65;24.45;;;;;;;17.70;100.00;101694.19;10500106;28;20472;-56
2021/09/11 21:46:36;;;;;;;35.53;22.90;;;;;;;17.52;100.00;101699.03;10500173;28;20508;-55
2021/09/11 21:51:39;;;;;;;34.75;23.30;;;;;;;17.73;100.00;101705.38;10500221;28;20053;-56
2021/09/11 21:56:44;;;;;;;30.05;20.13;;;;;;;17.71;100.00;101696.72;10499983;28;20084;-59
2021/09/11 22:01:53;;;;;;;29.85;20.27;;;;;;;17.64;100.00;101691.03;10498473;28;20059;-54
2021/09/11 22:06:56;;;;;;;30.55;19.92;;;;;;;17.71;100.00;101706.47;10499729;28;20044;-52
2021/09/11 22:11:58;;;;;;;37.65;18.75;;;;;;;17.77;100.00;101704.22;10498083;28;20048;-55
2021/09/11 22:17:01;;;;;;;32.97;18.65;;;;;;;17.67;100.00;101694.41;10498966;28;20051;-54
2021/09/11 22:22:04;;;;;;;28.00;16.13;;;;;;;17.59;100.00;101702.91;10498413;28;20072;-57
2021/09/11 22:27:07;;;;;;;25.98;15.43;;;;;;;17.57;100.00;101705.69;10498784;28;20516;-57
2021/09/11 22:32:09;;;;;;;31.83;16.30;;;;;;;17.72;100.00;101701.06;10498625;28;20051;-55